sensor_id;sensor_type;location;lat;lon;timestamp;pressure;altitude;pressure_sealevel;temperature;humidity
35778;BME280;21899;42.662;23.316;2023-04-30T00:02:07;94118.00;;;10.28;91.49
35778;BME280;21899;42.662;23.316;2023-04-30T00:04:33;94121.06;;;10.23;92.09
35778;BME280;21899;42.662;23.316;2023-04-30T00:06:58;94120.72;;;10.18;92.63
35778;BME280;21899;42.662;23.316;2023-04-30T00:09:23;94121.47;;;10.15;93.23
35778;BME280;21899;42.662;23.316;2023-04-30T00:11:49;94115.75;;;10.02;93.76
35778;BME280;21899;42.662;23.316;2023-04-30T00:14:14;94108.53;;;9.96;94.13
35778;BME280;21899;42.662;23.316;2023-04-30T00:16:40;94108.53;;;9.96;94.47
35778;BME280;21899;42.662;23.316;2023-04-30T00:19:06;94120.00;;;9.96;94.23
35778;BME280;21899;42.662;23.316;2023-04-30T00:21:32;94110.09;;;9.90;94.51
35778;BME280;21899;42.662;23.316;2023-04-30T00:23:58;94118.06;;;9.93;94.48
35778;BME280;21899;42.662;23.316;2023-04-30T00:26:25;94114.25;;;9.91;94.50
35778;BME280;21899;42.662;23.316;2023-04-30T00:28:51;94112.00;;;9.82;94.53
35778;BME280;21899;42.662;23.316;2023-04-30T00:31:16;94115.81;;;9.81;94.79
35778;BME280;21899;42.662;23.316;2023-04-30T00:33:41;94115.81;;;9.74;94.71
35778;BME280;21899;42.662;23.316;2023-04-30T00:36:07;94105.53;;;9.69;95.54
35778;BME280;21899;42.662;23.316;2023-04-30T00:38:32;94121.16;;;9.74;95.49
35778;BME280;21899;42.662;23.316;2023-04-30T00:40:58;94120.41;;;9.70;95.58
35778;BME280;21899;42.662;23.316;2023-04-30T00:43:23;94121.56;;;9.69;94.92
35778;BME280;21899;42.662;23.316;2023-04-30T00:45:49;94114.69;;;9.68;94.72
35778;BME280;21899;42.662;23.316;2023-04-30T00:48:14;94111.66;;;9.66;94.44
35778;BME280;21899;42.662;23.316;2023-04-30T00:50:40;94118.13;;;9.65;94.17
35778;BME280;21899;42.662;23.316;2023-04-30T00:53:08;94109.75;;;9.63;93.96
35778;BME280;21899;42.662;23.316;2023-04-30T00:55:34;94103.25;;;9.64;94.01
35778;BME280;21899;42.662;23.316;2023-04-30T00:57:59;94092.22;;;9.48;94.59
35778;BME280;21899;42.662;23.316;2023-04-30T01:00:26;94110.13;;;9.55;94.82
35778;BME280;21899;42.662;23.316;2023-04-30T01:02:52;94110.13;;;9.48;94.45
35778;BME280;21899;42.662;23.316;2023-04-30T01:05:18;94097.94;;;9.36;94.87
35778;BME280;21899;42.662;23.316;2023-04-30T01:07:44;94097.53;;;9.34;95.47
35778;BME280;21899;42.662;23.316;2023-04-30T01:10:14;94097.56;;;9.27;96.27
35778;BME280;21899;42.662;23.316;2023-04-30T01:13:03;94098.69;;;9.26;98.14
35778;BME280;21899;42.662;23.316;2023-04-30T01:15:39;94094.50;;;9.21;98.28
35778;BME280;21899;42.662;23.316;2023-04-30T01:18:25;94094.13;;;9.16;99.04
35778;BME280;21899;42.662;23.316;2023-04-30T01:20:55;94110.50;;;9.11;100.00
35778;BME280;21899;42.662;23.316;2023-04-30T01:26:06;94110.13;;;8.95;100.00
35778;BME280;21899;42.662;23.316;2023-04-30T01:28:35;94105.94;;;8.94;100.00
35778;BME280;21899;42.662;23.316;2023-04-30T01:31:02;94104.00;;;8.91;100.00
35778;BME280;21899;42.662;23.316;2023-04-30T01:33:27;94102.50;;;8.90;100.00
35778;BME280;21899;42.662;23.316;2023-04-30T01:52:39;94111.28;;;8.87;100.00
35778;BME280;21899;42.662;23.316;2023-04-30T01:57:58;94112.03;;;8.91;100.00
35778;BME280;21899;42.662;23.316;2023-04-30T02:00:25;94115.47;;;8.95;100.00
35778;BME280;21899;42.662;23.316;2023-04-30T02:02:51;94107.84;;;9.00;100.00
35778;BME280;21899;42.662;23.316;2023-04-30T02:05:17;94115.09;;;9.03;100.00
35778;BME280;21899;42.662;23.316;2023-04-30T02:07:45;94106.34;;;9.10;100.00
35778;BME280;21899;42.662;23.316;2023-04-30T02:10:12;94108.63;;;9.11;100.00
35778;BME280;21899;42.662;23.316;2023-04-30T02:12:38;94103.28;;;9.18;100.00
35778;BME280;21899;42.662;23.316;2023-04-30T02:15:04;94110.13;;;9.16;100.00
35778;BME280;21899;42.662;23.316;2023-04-30T02:17:30;94111.28;;;9.15;100.00
35778;BME280;21899;42.662;23.316;2023-04-30T02:19:57;94094.88;;;9.13;100.00
35778;BME280;21899;42.662;23.316;2023-04-30T02:22:22;94112.81;;;9.16;100.00
35778;BME280;21899;42.662;23.316;2023-04-30T02:24:48;94105.56;;;9.09;100.00
35778;BME280;21899;42.662;23.316;2023-04-30T02:27:13;94104.78;;;9.09;100.00
35778;BME280;21899;42.662;23.316;2023-04-30T02:29:39;94103.28;;;9.08;100.00
35778;BME280;21899;42.662;23.316;2023-04-30T02:32:04;94104.81;;;9.02;100.00
35778;BME280;21899;42.662;23.316;2023-04-30T02:34:30;94103.28;;;9.08;100.00
35778;BME280;21899;42.662;23.316;2023-04-30T02:36:55;94094.53;;;9.04;100.00
35778;BME280;21899;42.662;23.316;2023-04-30T02:39:21;94106.72;;;9.12;100.00
35778;BME280;21899;42.662;23.316;2023-04-30T02:41:46;94102.53;;;9.18;100.00
35778;BME280;21899;42.662;23.316;2023-04-30T02:44:11;94105.59;;;9.27;100.00
35778;BME280;21899;42.662;23.316;2023-04-30T02:46:37;94104.03;;;9.33;100.00
35778;BME280;21899;42.662;23.316;2023-04-30T02:49:02;94105.56;;;9.41;100.00
35778;BME280;21899;42.662;23.316;2023-04-30T02:51:28;94109.75;;;9.49;100.00
35778;BME280;21899;42.662;23.316;2023-04-30T02:53:53;94113.94;;;9.57;100.00
35778;BME280;21899;42.662;23.316;2023-04-30T02:56:18;94109.75;;;9.63;100.00
35778;BME280;21899;42.662;23.316;2023-04-30T02:58:44;94102.84;;;9.62;100.00
35778;BME280;21899;42.662;23.316;2023-04-30T03:01:09;94110.09;;;9.65;99.73
35778;BME280;21899;42.662;23.316;2023-04-30T03:03:35;94105.53;;;9.66;100.00
35778;BME280;21899;42.662;23.316;2023-04-30T03:06:00;94115.81;;;9.78;99.73
35778;BME280;21899;42.662;23.316;2023-04-30T03:08:26;94119.22;;;9.85;99.43
35778;BME280;21899;42.662;23.316;2023-04-30T03:10:51;94114.28;;;9.80;99.05
35778;BME280;21899;42.662;23.316;2023-04-30T03:13:17;94112.38;;;9.77;98.66
35778;BME280;21899;42.662;23.316;2023-04-30T03:15:42;94121.94;;;9.75;98.84
35778;BME280;21899;42.662;23.316;2023-04-30T03:18:09;94123.06;;;9.77;98.33
35778;BME280;21899;42.662;23.316;2023-04-30T03:20:34;94129.97;;;9.78;98.26
35778;BME280;21899;42.662;23.316;2023-04-30T03:23:00;94126.50;;;9.81;97.82
35778;BME280;21899;42.662;23.316;2023-04-30T03:25:25;94132.25;;;9.83;97.29
35778;BME280;21899;42.662;23.316;2023-04-30T03:27:50;94126.13;;;9.86;97.02
35778;BME280;21899;42.662;23.316;2023-04-30T03:30:16;94131.09;;;9.88;97.01
35778;BME280;21899;42.662;23.316;2023-04-30T03:32:41;94130.69;;;9.89;96.75
35778;BME280;21899;42.662;23.316;2023-04-30T03:35:07;94116.56;;;9.85;97.20
35778;BME280;21899;42.662;23.316;2023-04-30T03:37:32;94127.63;;;9.91;97.03
35778;BME280;21899;42.662;23.316;2023-04-30T03:39:58;94134.88;;;9.94;96.83
35778;BME280;21899;42.662;23.316;2023-04-30T03:42:23;94135.63;;;10.01;96.24
35778;BME280;21899;42.662;23.316;2023-04-30T03:44:48;94137.94;;;9.99;96.46
35778;BME280;21899;42.662;23.316;2023-04-30T03:47:14;94137.53;;;10.04;95.69
35778;BME280;21899;42.662;23.316;2023-04-30T03:49:39;94147.47;;;10.14;95.18
35778;BME280;21899;42.662;23.316;2023-04-30T03:52:05;94147.47;;;10.14;94.79
35778;BME280;21899;42.662;23.316;2023-04-30T03:54:31;94152.81;;;10.14;94.54
35778;BME280;21899;42.662;23.316;2023-04-30T03:56:58;94150.13;;;10.04;93.78
35778;BME280;21899;42.662;23.316;2023-04-30T03:59:24;94149.00;;;9.98;94.33
35778;BME280;21899;42.662;23.316;2023-04-30T04:01:50;94153.59;;;9.94;94.73
35778;BME280;21899;42.662;23.316;2023-04-30T04:04:15;94142.91;;;9.94;94.91
35778;BME280;21899;42.662;23.316;2023-04-30T04:06:41;94161.63;;;10.11;94.71
35778;BME280;21899;42.662;23.316;2023-04-30T04:09:07;94159.69;;;10.15;93.67
35778;BME280;21899;42.662;23.316;2023-04-30T04:11:32;94158.13;;;10.25;92.95
35778;BME280;21899;42.662;23.316;2023-04-30T04:13:58;94154.31;;;10.29;93.11
35778;BME280;21899;42.662;23.316;2023-04-30T04:16:24;94157.38;;;10.28;93.15
35778;BME280;21899;42.662;23.316;2023-04-30T04:18:50;94158.09;;;10.39;92.93
35778;BME280;21899;42.662;23.316;2023-04-30T04:21:15;94160.34;;;10.51;92.34
35778;BME280;21899;42.662;23.316;2023-04-30T04:23:41;94159.16;;;10.63;91.99
35778;BME280;21899;42.662;23.316;2023-04-30T04:26:06;94160.25;;;10.76;92.05
35778;BME280;21899;42.662;23.316;2023-04-30T04:28:32;94165.13;;;10.88;91.79
35778;BME280;21899;42.662;23.316;2023-04-30T04:30:57;94160.81;;;11.08;91.50
35778;BME280;21899;42.662;23.316;2023-04-30T04:33:23;94165.69;;;11.27;89.57
35778;BME280;21899;42.662;23.316;2023-04-30T04:35:49;94170.63;;;11.32;88.36
35778;BME280;21899;42.662;23.316;2023-04-30T04:38:14;94165.25;;;11.35;87.81
35778;BME280;21899;42.662;23.316;2023-04-30T04:40:39;94175.06;;;11.49;87.48
35778;BME280;21899;42.662;23.316;2023-04-30T04:43:05;94172.88;;;11.37;87.45
35778;BME280;21899;42.662;23.316;2023-04-30T04:45:31;94177.06;;;11.38;87.48
35778;BME280;21899;42.662;23.316;2023-04-30T04:47:57;94175.84;;;11.49;86.80
35778;BME280;21899;42.662;23.316;2023-04-30T04:50:23;94175.91;;;11.39;86.90
35778;BME280;21899;42.662;23.316;2023-04-30T04:52:48;94172.75;;;11.51;86.06
35778;BME280;21899;42.662;23.316;2023-04-30T04:55:13;94180.66;;;11.72;86.02
35778;BME280;21899;42.662;23.316;2023-04-30T04:57:39;94184.75;;;11.87;85.00
35778;BME280;21899;42.662;23.316;2023-04-30T05:00:07;94194.69;;;11.90;84.39
35778;BME280;21899;42.662;23.316;2023-04-30T05:02:34;94194.25;;;11.95;84.50
35778;BME280;21899;42.662;23.316;2023-04-30T05:04:59;94180.75;;;12.06;84.02
35778;BME280;21899;42.662;23.316;2023-04-30T05:07:25;94192.91;;;12.17;82.90
35778;BME280;21899;42.662;23.316;2023-04-30T05:09:51;94178.28;;;12.22;82.45
35778;BME280;21899;42.662;23.316;2023-04-30T05:12:16;94188.31;;;12.18;81.69
35778;BME280;21899;42.662;23.316;2023-04-30T05:14:42;94191.59;;;11.92;83.52
35778;BME280;21899;42.662;23.316;2023-04-30T05:17:08;94194.72;;;11.87;84.07
35778;BME280;21899;42.662;23.316;2023-04-30T05:19:33;94191.66;;;11.88;83.73
35778;BME280;21899;42.662;23.316;2023-04-30T05:21:58;94193.22;;;11.82;83.64
35778;BME280;21899;42.662;23.316;2023-04-30T05:24:27;94193.66;;;11.77;84.02
35778;BME280;21899;42.662;23.316;2023-04-30T05:26:52;94189.06;;;11.74;83.96
35778;BME280;21899;42.662;23.316;2023-04-30T05:29:17;94176.38;;;11.82;84.03
35778;BME280;21899;42.662;23.316;2023-04-30T05:31:43;94183.19;;;11.93;83.81
35778;BME280;21899;42.662;23.316;2023-04-30T05:34:08;94185.38;;;12.02;83.66
35778;BME280;21899;42.662;23.316;2023-04-30T05:36:34;94184.50;;;12.15;82.10
35778;BME280;21899;42.662;23.316;2023-04-30T05:38:59;94195.81;;;12.33;81.08
35778;BME280;21899;42.662;23.316;2023-04-30T05:41:25;94187.34;;;12.35;81.27
35778;BME280;21899;42.662;23.316;2023-04-30T05:43:50;94189.19;;;12.41;81.05
35778;BME280;21899;42.662;23.316;2023-04-30T05:46:15;94197.50;;;12.54;78.62
35778;BME280;21899;42.662;23.316;2023-04-30T05:48:41;94180.28;;;12.51;77.99
35778;BME280;21899;42.662;23.316;2023-04-30T05:51:06;94189.28;;;12.68;77.68
35778;BME280;21899;42.662;23.316;2023-04-30T05:53:32;94185.22;;;12.86;76.68
35778;BME280;21899;42.662;23.316;2023-04-30T05:55:57;94183.75;;;12.82;76.19
35778;BME280;21899;42.662;23.316;2023-04-30T05:58:23;94194.06;;;12.87;76.95
35778;BME280;21899;42.662;23.316;2023-04-30T06:00:49;94192.25;;;13.11;76.77
35778;BME280;21899;42.662;23.316;2023-04-30T06:03:17;94194.88;;;13.14;74.56
35778;BME280;21899;42.662;23.316;2023-04-30T06:05:42;94187.13;;;13.20;74.61
35778;BME280;21899;42.662;23.316;2023-04-30T06:08:08;94196.75;;;13.44;73.71
35778;BME280;21899;42.662;23.316;2023-04-30T06:10:34;94205.91;;;13.50;72.83
35778;BME280;21899;42.662;23.316;2023-04-30T06:12:59;94195.09;;;13.80;72.28
35778;BME280;21899;42.662;23.316;2023-04-30T06:15:25;94210.50;;;13.99;70.55
35778;BME280;21899;42.662;23.316;2023-04-30T06:17:50;94212.84;;;14.20;69.35
35778;BME280;21899;42.662;23.316;2023-04-30T06:20:16;94214.59;;;14.07;67.72
35778;BME280;21899;42.662;23.316;2023-04-30T06:22:41;94210.00;;;13.84;68.21
35778;BME280;21899;42.662;23.316;2023-04-30T06:25:07;94207.00;;;14.02;66.94
35778;BME280;21899;42.662;23.316;2023-04-30T06:27:33;94206.25;;;14.01;66.28
35778;BME280;21899;42.662;23.316;2023-04-30T06:29:58;94200.47;;;14.03;66.51
35778;BME280;21899;42.662;23.316;2023-04-30T06:32:25;94210.50;;;13.99;66.59
35778;BME280;21899;42.662;23.316;2023-04-30T06:34:51;94207.81;;;13.76;66.79
35778;BME280;21899;42.662;23.316;2023-04-30T06:37:16;94218.06;;;13.58;68.04
35778;BME280;21899;42.662;23.316;2023-04-30T06:39:42;94222.59;;;13.38;69.16
35778;BME280;21899;42.662;23.316;2023-04-30T06:42:08;94219.13;;;13.37;69.58
35778;BME280;21899;42.662;23.316;2023-04-30T06:44:33;94219.34;;;13.23;69.29
35778;BME280;21899;42.662;23.316;2023-04-30T06:46:59;94221.91;;;13.03;70.82
35778;BME280;21899;42.662;23.316;2023-04-30T06:49:24;94219.00;;;13.18;69.95
35778;BME280;21899;42.662;23.316;2023-04-30T06:51:49;94214.66;;;13.27;69.78
35778;BME280;21899;42.662;23.316;2023-04-30T06:54:15;94223.47;;;13.58;68.42
35778;BME280;21899;42.662;23.316;2023-04-30T06:56:41;94212.69;;;14.07;66.49
35778;BME280;21899;42.662;23.316;2023-04-30T06:59:07;94220.28;;;14.59;64.08
35778;BME280;21899;42.662;23.316;2023-04-30T07:01:33;94213.91;;;15.08;62.79
35778;BME280;21899;42.662;23.316;2023-04-30T07:03:58;94217.19;;;15.71;60.09
35778;BME280;21899;42.662;23.316;2023-04-30T07:06:24;94218.41;;;16.18;57.72
35778;BME280;21899;42.662;23.316;2023-04-30T07:08:50;94218.63;;;16.39;56.34
35778;BME280;21899;42.662;23.316;2023-04-30T07:11:15;94214.16;;;16.77;55.00
35778;BME280;21899;42.662;23.316;2023-04-30T07:13:41;94213.38;;;16.93;54.39
35778;BME280;21899;42.662;23.316;2023-04-30T07:16:06;94229.16;;;16.94;53.98
35778;BME280;21899;42.662;23.316;2023-04-30T07:18:33;94230.81;;;16.76;54.07
35778;BME280;21899;42.662;23.316;2023-04-30T07:20:59;94223.44;;;16.32;54.90
35778;BME280;21899;42.662;23.316;2023-04-30T07:23:25;94229.69;;;15.97;55.83
35778;BME280;21899;42.662;23.316;2023-04-30T07:25:50;94215.78;;;15.98;56.32
35778;BME280;21899;42.662;23.316;2023-04-30T07:28:16;94215.38;;;16.16;55.69
35778;BME280;21899;42.662;23.316;2023-04-30T07:30:41;94218.22;;;16.25;56.08
35778;BME280;21899;42.662;23.316;2023-04-30T07:33:06;94206.06;;;16.17;55.40
35778;BME280;21899;42.662;23.316;2023-04-30T07:35:33;94224.63;;;16.15;55.74
35778;BME280;21899;42.662;23.316;2023-04-30T07:37:59;94217.38;;;15.96;57.16
35778;BME280;21899;42.662;23.316;2023-04-30T07:40:24;94223.38;;;16.03;57.09
35778;BME280;21899;42.662;23.316;2023-04-30T07:42:50;94220.06;;;16.12;56.56
35778;BME280;21899;42.662;23.316;2023-04-30T07:45:15;94232.13;;;16.23;56.68
35778;BME280;21899;42.662;23.316;2023-04-30T07:47:40;94224.63;;;16.31;57.00
35778;BME280;21899;42.662;23.316;2023-04-30T07:50:06;94233.47;;;16.31;56.07
35778;BME280;21899;42.662;23.316;2023-04-30T07:52:31;94233.16;;;16.45;55.98
35778;BME280;21899;42.662;23.316;2023-04-30T07:54:57;94239.56;;;16.51;55.32
35778;BME280;21899;42.662;23.316;2023-04-30T07:57:22;94232.22;;;16.52;53.81
35778;BME280;21899;42.662;23.316;2023-04-30T07:59:50;94235.22;;;16.70;53.87
35778;BME280;21899;42.662;23.316;2023-04-30T08:02:16;94240.03;;;17.07;51.67
35778;BME280;21899;42.662;23.316;2023-04-30T08:04:41;94229.13;;;16.82;52.97
35778;BME280;21899;42.662;23.316;2023-04-30T08:07:07;94231.31;;;16.87;52.35
35778;BME280;21899;42.662;23.316;2023-04-30T08:09:32;94235.84;;;16.90;51.99
35778;BME280;21899;42.662;23.316;2023-04-30T08:11:57;94236.19;;;16.92;52.63
35778;BME280;21899;42.662;23.316;2023-04-30T08:14:23;94239.25;;;17.07;52.17
35778;BME280;21899;42.662;23.316;2023-04-30T08:16:48;94241.13;;;17.22;50.81
35778;BME280;21899;42.662;23.316;2023-04-30T08:19:13;94244.16;;;17.24;51.08
35778;BME280;21899;42.662;23.316;2023-04-30T08:21:39;94242.28;;;17.09;50.94
35778;BME280;21899;42.662;23.316;2023-04-30T08:24:04;94239.88;;;16.98;50.97
35778;BME280;21899;42.662;23.316;2023-04-30T08:26:30;94242.66;;;16.94;51.24
35778;BME280;21899;42.662;23.316;2023-04-30T08:28:55;94244.41;;;17.01;50.73
35778;BME280;21899;42.662;23.316;2023-04-30T08:31:21;94242.63;;;16.82;50.81
35778;BME280;21899;42.662;23.316;2023-04-30T08:33:46;94244.81;;;16.87;51.48
35778;BME280;21899;42.662;23.316;2023-04-30T08:36:12;94235.66;;;16.97;50.94
35778;BME280;21899;42.662;23.316;2023-04-30T08:38:37;94232.69;;;17.20;50.04
35778;BME280;21899;42.662;23.316;2023-04-30T08:41:12;94242.03;;;17.44;48.87
35778;BME280;21899;42.662;23.316;2023-04-30T08:43:39;94237.22;;;17.52;48.89
35778;BME280;21899;42.662;23.316;2023-04-30T08:46:05;94240.06;;;17.32;48.27
35778;BME280;21899;42.662;23.316;2023-04-30T08:48:31;94241.34;;;17.15;48.89
35778;BME280;21899;42.662;23.316;2023-04-30T08:51:01;94227.53;;;17.38;48.58
35778;BME280;21899;42.662;23.316;2023-04-30T08:53:28;94237.50;;;17.41;46.87
35778;BME280;21899;42.662;23.316;2023-04-30T08:55:54;94220.81;;;17.30;47.69
35778;BME280;21899;42.662;23.316;2023-04-30T08:58:20;94219.44;;;17.38;47.65
35778;BME280;21899;42.662;23.316;2023-04-30T09:00:45;94214.16;;;17.06;48.35
35778;BME280;21899;42.662;23.316;2023-04-30T09:03:11;94220.66;;;17.09;47.47
35778;BME280;21899;42.662;23.316;2023-04-30T09:05:36;94215.81;;;17.16;47.35
35778;BME280;21899;42.662;23.316;2023-04-30T09:08:06;94220.50;;;17.28;46.64
35778;BME280;21899;42.662;23.316;2023-04-30T09:10:35;94210.63;;;17.34;46.55
35778;BME280;21899;42.662;23.316;2023-04-30T09:13:06;94195.78;;;17.55;46.25
35778;BME280;21899;42.662;23.316;2023-04-30T09:15:34;94206.91;;;17.69;45.26
35778;BME280;21899;42.662;23.316;2023-04-30T09:20:34;94200.94;;;17.87;44.92
35778;BME280;21899;42.662;23.316;2023-04-30T09:23:09;94201.91;;;18.05;44.30
35778;BME280;21899;42.662;23.316;2023-04-30T09:25:42;94189.97;;;18.15;44.91
35778;BME280;21899;42.662;23.316;2023-04-30T09:28:10;94199.72;;;18.13;43.69
35778;BME280;21899;42.662;23.316;2023-04-30T09:30:37;94187.63;;;17.92;44.84
35778;BME280;21899;42.662;23.316;2023-04-30T09:33:02;94184.00;;;18.20;44.54
35778;BME280;21899;42.662;23.316;2023-04-30T09:35:35;94174.22;;;18.36;43.61
35778;BME280;21899;42.662;23.316;2023-04-30T09:38:02;94166.25;;;18.54;42.87
35778;BME280;21899;42.662;23.316;2023-04-30T09:40:36;94166.78;;;18.83;42.24
35778;BME280;21899;42.662;23.316;2023-04-30T09:43:02;94169.44;;;19.17;41.94
35778;BME280;21899;42.662;23.316;2023-04-30T09:45:46;94158.94;;;19.59;40.91
35778;BME280;21899;42.662;23.316;2023-04-30T09:48:21;94176.22;;;19.83;40.34
35778;BME280;21899;42.662;23.316;2023-04-30T09:50:47;94166.34;;;20.07;39.98
35778;BME280;21899;42.662;23.316;2023-04-30T09:53:13;94160.72;;;19.92;40.52
35778;BME280;21899;42.662;23.316;2023-04-30T09:55:44;94171.53;;;19.74;40.56
35778;BME280;21899;42.662;23.316;2023-04-30T09:58:10;94169.91;;;19.24;41.13
35778;BME280;21899;42.662;23.316;2023-04-30T10:00:37;94153.88;;;18.87;41.58
35778;BME280;21899;42.662;23.316;2023-04-30T10:03:07;94160.06;;;19.18;40.44
35778;BME280;21899;42.662;23.316;2023-04-30T10:05:42;94153.63;;;19.46;40.13
35778;BME280;21899;42.662;23.316;2023-04-30T10:08:20;94154.16;;;19.32;39.89
35778;BME280;21899;42.662;23.316;2023-04-30T10:10:49;94153.44;;;19.19;41.05
35778;BME280;21899;42.662;23.316;2023-04-30T10:13:18;94150.25;;;19.42;39.95
35778;BME280;21899;42.662;23.316;2023-04-30T10:15:51;94143.06;;;19.48;39.94
35778;BME280;21899;42.662;23.316;2023-04-30T10:18:22;94153.50;;;19.59;39.97
35778;BME280;21899;42.662;23.316;2023-04-30T10:20:52;94149.72;;;19.56;40.12
35778;BME280;21899;42.662;23.316;2023-04-30T10:23:20;94152.13;;;19.23;40.80
35778;BME280;21899;42.662;23.316;2023-04-30T10:25:46;94162.88;;;19.05;41.61
35778;BME280;21899;42.662;23.316;2023-04-30T10:28:13;94162.47;;;18.73;43.02
35778;BME280;21899;42.662;23.316;2023-04-30T10:30:40;94189.91;;;17.81;46.80
35778;BME280;21899;42.662;23.316;2023-04-30T10:33:36;94195.56;;;16.67;52.26
35778;BME280;21899;42.662;23.316;2023-04-30T10:36:12;94220.16;;;15.60;67.12
35778;BME280;21899;42.662;23.316;2023-04-30T10:38:38;94232.50;;;14.17;80.88
35778;BME280;21899;42.662;23.316;2023-04-30T10:41:06;94221.34;;;13.16;92.22
35778;BME280;21899;42.662;23.316;2023-04-30T10:43:32;94208.63;;;12.86;98.03
35778;BME280;21899;42.662;23.316;2023-04-30T10:46:00;94202.69;;;12.71;100.00
35778;BME280;21899;42.662;23.316;2023-04-30T10:48:27;94202.63;;;12.75;100.00
35778;BME280;21899;42.662;23.316;2023-04-30T10:50:58;94195.34;;;12.75;100.00
35778;BME280;21899;42.662;23.316;2023-04-30T10:53:24;94197.28;;;13.08;100.00
35778;BME280;21899;42.662;23.316;2023-04-30T10:56:00;94182.00;;;13.55;100.00
35778;BME280;21899;42.662;23.316;2023-04-30T10:58:32;94182.78;;;14.02;100.00
35778;BME280;21899;42.662;23.316;2023-04-30T11:01:07;94174.41;;;14.43;100.00
35778;BME280;21899;42.662;23.316;2023-04-30T11:03:35;94179.03;;;14.81;100.00
35778;BME280;21899;42.662;23.316;2023-04-30T11:06:13;94178.53;;;15.06;96.43
35778;BME280;21899;42.662;23.316;2023-04-30T11:08:43;94177.91;;;15.53;99.29
35778;BME280;21899;42.662;23.316;2023-04-30T11:11:10;94176.88;;;16.12;91.13
35778;BME280;21899;42.662;23.316;2023-04-30T11:13:46;94169.66;;;16.53;81.90
35778;BME280;21899;42.662;23.316;2023-04-30T11:16:14;94164.78;;;16.89;76.45
35778;BME280;21899;42.662;23.316;2023-04-30T11:18:42;94182.88;;;17.59;77.24
35778;BME280;21899;42.662;23.316;2023-04-30T11:21:08;94171.88;;;18.12;73.80
35778;BME280;21899;42.662;23.316;2023-04-30T11:23:34;94175.94;;;18.30;60.88
35778;BME280;21899;42.662;23.316;2023-04-30T11:26:00;94177.25;;;18.72;68.82
35778;BME280;21899;42.662;23.316;2023-04-30T11:28:26;94163.25;;;18.95;64.78
35778;BME280;21899;42.662;23.316;2023-04-30T11:30:57;94155.47;;;19.06;64.22
35778;BME280;21899;42.662;23.316;2023-04-30T11:33:27;94167.28;;;19.12;57.86
35778;BME280;21899;42.662;23.316;2023-04-30T11:35:54;94164.84;;;18.83;56.21
35778;BME280;21899;42.662;23.316;2023-04-30T11:38:27;94162.13;;;18.83;52.66
35778;BME280;21899;42.662;23.316;2023-04-30T11:40:53;94163.91;;;18.99;53.93
35778;BME280;21899;42.662;23.316;2023-04-30T11:43:23;94157.03;;;19.16;49.16
35778;BME280;21899;42.662;23.316;2023-04-30T11:48:41;94165.19;;;18.73;47.30
35778;BME280;21899;42.662;23.316;2023-04-30T11:51:21;94165.19;;;18.04;50.67
35778;BME280;21899;42.662;23.316;2023-04-30T11:53:50;94180.16;;;17.46;51.38
35778;BME280;21899;42.662;23.316;2023-04-30T11:56:20;94162.78;;;17.06;51.82
35778;BME280;21899;42.662;23.316;2023-04-30T11:58:47;94153.38;;;17.11;51.87
35778;BME280;21899;42.662;23.316;2023-04-30T12:01:13;94162.28;;;17.36;52.19
35778;BME280;21899;42.662;23.316;2023-04-30T12:03:41;94161.44;;;17.64;53.18
35778;BME280;21899;42.662;23.316;2023-04-30T12:06:09;94148.06;;;18.07;51.27
35778;BME280;21899;42.662;23.316;2023-04-30T12:08:35;94147.41;;;18.03;55.20
35778;BME280;21899;42.662;23.316;2023-04-30T12:11:00;94144.50;;;17.98;54.72
35778;BME280;21899;42.662;23.316;2023-04-30T12:13:25;94138.03;;;17.83;53.90
35778;BME280;21899;42.662;23.316;2023-04-30T12:15:58;94142.69;;;17.82;55.33
35778;BME280;21899;42.662;23.316;2023-04-30T12:18:24;94152.56;;;17.51;54.50
35778;BME280;21899;42.662;23.316;2023-04-30T12:20:50;94155.78;;;17.34;54.77
35778;BME280;21899;42.662;23.316;2023-04-30T12:23:16;94166.19;;;16.94;56.93
35778;BME280;21899;42.662;23.316;2023-04-30T12:25:42;94180.47;;;16.53;59.00
35778;BME280;21899;42.662;23.316;2023-04-30T12:28:08;94191.16;;;16.12;62.47
35778;BME280;21899;42.662;23.316;2023-04-30T12:30:34;94181.97;;;15.61;63.58
35778;BME280;21899;42.662;23.316;2023-04-30T12:33:00;94198.59;;;15.40;62.09
35778;BME280;21899;42.662;23.316;2023-04-30T12:35:29;94179.50;;;15.15;65.96
35778;BME280;21899;42.662;23.316;2023-04-30T12:38:05;94181.22;;;15.25;69.83
35778;BME280;21899;42.662;23.316;2023-04-30T12:40:32;94189.97;;;15.29;71.06
35778;BME280;21899;42.662;23.316;2023-04-30T12:43:02;94182.56;;;15.33;70.91
35778;BME280;21899;42.662;23.316;2023-04-30T12:48:13;94187.19;;;15.85;68.13
35778;BME280;21899;42.662;23.316;2023-04-30T12:50:38;94190.94;;;16.35;66.70
35778;BME280;21899;42.662;23.316;2023-04-30T12:53:04;94192.69;;;16.86;64.43
35778;BME280;21899;42.662;23.316;2023-04-30T12:55:32;94195.47;;;17.24;60.35
35778;BME280;21899;42.662;23.316;2023-04-30T12:58:29;94193.47;;;17.78;58.41
35778;BME280;21899;42.662;23.316;2023-04-30T13:00:56;94183.13;;;18.23;56.96
35778;BME280;21899;42.662;23.316;2023-04-30T13:03:23;94195.03;;;18.73;55.63
35778;BME280;21899;42.662;23.316;2023-04-30T13:05:52;94188.78;;;18.85;53.80
35778;BME280;21899;42.662;23.316;2023-04-30T13:08:18;94188.31;;;18.99;51.08
35778;BME280;21899;42.662;23.316;2023-04-30T13:10:46;94187.16;;;18.87;49.56
35778;BME280;21899;42.662;23.316;2023-04-30T13:13:12;94180.72;;;18.94;49.81
35778;BME280;21899;42.662;23.316;2023-04-30T13:15:38;94169.44;;;19.17;50.02
35778;BME280;21899;42.662;23.316;2023-04-30T13:18:06;94163.03;;;19.32;49.61
35778;BME280;21899;42.662;23.316;2023-04-30T13:20:37;94155.44;;;19.49;49.64